createdAt,value
2019-04-09T00:00:02.081Z,57.35
2019-04-09T00:02:42.816Z,57.67
2019-04-09T00:05:12.802Z,58.36
2019-04-09T00:07:54.431Z,57.65
2019-04-09T00:10:15.317Z,58.10
2019-04-09T00:12:45.419Z,58.41
2019-04-09T00:15:15.666Z,58.55
2019-04-09T00:17:46.576Z,58.71
2019-04-09T00:20:18.533Z,59.04
2019-04-09T00:22:48.890Z,59.09
2019-04-09T00:25:18.647Z,59.73
2019-04-09T00:27:48.193Z,59.48
2019-04-09T00:30:17.785Z,59.88
2019-04-09T00:32:47.394Z,59.94
2019-04-09T00:35:16.998Z,60.21
2019-04-09T00:37:47.624Z,59.57
2019-04-09T00:40:17.641Z,60.06
2019-04-09T00:42:47.776Z,60.03
2019-04-09T00:45:17.858Z,60.17
2019-04-09T00:47:47.762Z,60.04
2019-04-09T00:50:17.391Z,60.29
2019-04-09T00:52:46.989Z,60.18
2019-04-09T00:55:16.860Z,60.21
2019-04-09T00:57:47.390Z,60.50
2019-04-09T01:00:19.155Z,60.58
2019-04-09T01:02:49.431Z,60.52
2019-04-09T01:05:19.602Z,60.96
2019-04-09T01:07:49.745Z,60.86
2019-04-09T01:10:19.428Z,60.65
2019-04-09T01:12:51.880Z,60.98
2019-04-09T01:15:20.428Z,60.99
2019-04-09T01:17:50.622Z,60.65
2019-04-09T01:20:21.014Z,61.47
2019-04-09T01:22:51.131Z,61.06
2019-04-09T01:25:39.255Z,61.71
2019-04-09T01:28:10.839Z,62.53
2019-04-09T01:30:51.275Z,63.08
2019-04-09T01:33:38.672Z,62.11
2019-04-09T01:36:17.032Z,62.43
2019-04-09T01:38:52.101Z,63.49
2019-04-09T01:41:25.476Z,63.70
2019-04-09T01:43:56.771Z,63.15
2019-04-09T01:46:31.018Z,63.33
2019-04-09T01:49:17.243Z,63.34
2019-04-09T01:51:47.127Z,63.83
2019-04-09T01:54:36.354Z,64.61
2019-04-09T01:57:05.806Z,64.20
2019-04-09T01:59:39.768Z,64.41
2019-04-09T02:02:11.206Z,64.09
2019-04-09T02:04:58.584Z,64.51
2019-04-09T02:07:39.046Z,64.00
2019-04-09T02:10:10.931Z,64.55
2019-04-09T02:12:42.694Z,65.12
2019-04-09T02:15:17.765Z,64.87
2019-04-09T02:17:47.067Z,65.67
2019-04-09T02:20:31.292Z,66.11
2019-04-09T02:23:03.092Z,66.02
2019-04-09T02:25:34.569Z,66.55
2019-04-09T02:28:08.943Z,67.36
2019-04-09T02:30:48.065Z,67.37
2019-04-09T02:33:21.434Z,66.92
2019-04-09T02:35:59.785Z,67.69
2019-04-09T02:38:34.563Z,67.70
2019-04-09T02:41:21.162Z,67.86
2019-04-09T02:44:08.663Z,68.81
2019-04-09T02:46:42.866Z,69.57
2019-04-09T02:49:14.700Z,69.35
2019-04-09T02:51:56.908Z,70.47
2019-04-09T02:54:27.275Z,70.01
2019-04-09T02:57:14.769Z,69.98
2019-04-09T03:00:03.418Z,69.69
2019-04-09T03:02:44.021Z,70.09
2019-04-09T03:05:18.295Z,69.51
2019-04-09T03:07:50.197Z,69.75
2019-04-09T03:10:34.006Z,69.76
2019-04-09T03:13:06.378Z,70.31
2019-04-09T03:15:36.091Z,70.33
2019-04-09T03:18:24.960Z,70.66
2019-04-09T03:21:08.574Z,71.13
2019-04-09T03:23:58.275Z,71.03
2019-04-09T03:26:27.658Z,70.61
2019-04-09T03:29:02.852Z,71.19
2019-04-09T03:34:20.543Z,71.49
2019-04-09T03:37:08.402Z,71.45
2019-04-09T03:39:46.883Z,71.97
2019-04-09T03:42:18.601Z,72.17
2019-04-09T03:44:53.816Z,74.59
2019-04-09T03:47:23.174Z,76.50
2019-04-09T03:50:12.900Z,76.87
2019-04-09T03:52:51.722Z,72.36
2019-04-09T03:55:40.741Z,71.27
2019-04-09T03:58:19.086Z,71.28
2019-04-09T04:00:47.723Z,71.70
2019-04-09T04:03:30.652Z,72.01
2019-04-09T04:06:11.665Z,71.62
2019-04-09T04:08:42.925Z,71.85
2019-04-09T04:11:23.266Z,71.95
2019-04-09T04:13:53.557Z,72.25
2019-04-09T04:16:24.118Z,72.76
2019-04-09T04:19:11.905Z,71.50
2019-04-09T04:21:52.499Z,72.42
2019-04-09T04:24:26.672Z,72.53
2019-04-09T04:27:14.207Z,73.11
2019-04-09T04:29:45.942Z,72.37
2019-04-09T04:32:23.097Z,72.62
2019-04-09T04:35:10.179Z,72.50
2019-04-09T04:37:47.395Z,73.12
2019-04-09T04:40:21.996Z,72.55
2019-04-09T04:42:55.153Z,72.99
2019-04-09T04:45:29.198Z,73.08
2019-04-09T04:48:09.477Z,72.31
2019-04-09T04:50:41.758Z,71.84
2019-04-09T04:53:13.273Z,72.46
2019-04-09T04:55:49.417Z,72.59
2019-04-09T04:58:20.612Z,72.31
2019-04-09T05:00:57.595Z,73.40
2019-04-09T05:03:36.084Z,72.30
2019-04-09T05:06:19.965Z,72.59
2019-04-09T05:09:02.827Z,72.55
2019-04-09T05:11:33.281Z,72.63
2019-04-09T05:14:17.133Z,72.63
2019-04-09T05:16:48.851Z,71.76
2019-04-09T05:19:36.170Z,71.18
2019-04-09T05:22:17.003Z,71.33
2019-04-09T05:24:46.980Z,71.54
2019-04-09T05:27:27.287Z,70.80
2019-04-09T05:30:02.612Z,70.62
2019-04-09T05:32:50.021Z,70.39
2019-04-09T05:35:37.418Z,70.32
2019-04-09T05:38:11.442Z,70.67
2019-04-09T05:41:00.086Z,70.86
2019-04-09T05:43:48.090Z,69.92
2019-04-09T05:46:19.575Z,69.92
2019-04-09T05:49:11.854Z,70.14
2019-04-09T05:51:45.977Z,69.91
2019-04-09T05:54:33.651Z,69.81
2019-04-09T05:57:21.978Z,69.94
2019-04-09T05:59:59.800Z,68.84
2019-04-09T06:02:31.785Z,68.03
2019-04-09T06:05:02.625Z,68.17
2019-04-09T06:07:53.475Z,67.79
2019-04-09T06:10:23.961Z,68.18
2019-04-09T06:12:53.728Z,67.83
2019-04-09T06:15:23.695Z,67.64
2019-04-09T06:17:54.014Z,67.15
2019-04-09T06:20:25.656Z,67.25
2019-04-09T06:22:55.209Z,66.66
2019-04-09T06:25:25.850Z,66.01
2019-04-09T06:27:55.781Z,65.22
2019-04-09T06:30:27.114Z,65.99
2019-04-09T06:32:59.617Z,65.31
2019-04-09T06:35:31.944Z,65.60
2019-04-09T06:38:19.531Z,65.58
2019-04-09T06:40:55.253Z,65.08
2019-04-09T06:43:30.406Z,64.74
2019-04-09T06:45:59.835Z,64.78
2019-04-09T06:48:34.158Z,64.11
2019-04-09T06:51:08.277Z,63.38
2019-04-09T06:53:37.576Z,63.27
2019-04-09T06:56:15.981Z,61.74
2019-04-09T06:58:55.984Z,60.74
2019-04-09T07:01:35.815Z,61.71
2019-04-09T07:04:23.750Z,61.07
2019-04-09T07:07:01.836Z,61.13
2019-04-09T07:09:51.688Z,60.45
2019-04-09T07:12:23.012Z,59.38
2019-04-09T07:14:55.219Z,59.48
2019-04-09T07:17:31.584Z,58.45
2019-04-09T07:20:19.963Z,58.12
2019-04-09T07:22:55.819Z,57.13
2019-04-09T07:25:27.883Z,56.85
2019-04-09T07:27:58.122Z,55.46
2019-04-09T07:30:32.212Z,55.05
2019-04-09T07:33:11.244Z,53.73
2019-04-09T07:35:50.652Z,53.38
2019-04-09T07:38:22.586Z,51.87
2019-04-09T07:41:06.185Z,51.35
2019-04-09T07:43:38.955Z,50.17
2019-04-09T07:46:32.217Z,50.18
2019-04-09T07:49:03.822Z,49.94
2019-04-09T07:51:52.187Z,48.07
2019-04-09T07:54:46.002Z,46.55
2019-04-09T07:57:19.809Z,45.49
2019-04-09T08:00:01.946Z,45.28
2019-04-09T08:02:30.558Z,44.14
2019-04-09T08:05:18.006Z,43.01
2019-04-09T08:07:59.591Z,41.66
2019-04-09T08:10:31.152Z,41.48
2019-04-09T08:13:06.464Z,41.30
2019-04-09T08:15:53.900Z,38.95
2019-04-09T08:18:33.597Z,38.60
2019-04-09T08:21:12.389Z,37.96
2019-04-09T08:24:02.018Z,37.45
2019-04-09T08:26:48.860Z,36.54
2019-04-09T08:29:40.066Z,37.54
2019-04-09T08:32:29.371Z,35.88
2019-04-09T08:35:13.916Z,35.11
2019-04-09T08:37:56.699Z,34.51
2019-04-09T08:40:27.391Z,33.54
2019-04-09T08:43:05.263Z,34.01
2019-04-09T08:45:53.610Z,34.07
2019-04-09T08:48:41.214Z,33.67
2019-04-09T08:51:20.960Z,32.39
2019-04-09T08:54:02.515Z,29.69
2019-04-09T08:56:44.598Z,30.07
2019-04-09T08:59:34.730Z,29.82
2019-04-09T09:02:16.783Z,29.82
2019-04-09T09:04:54.181Z,30.23
2019-04-09T09:09:57.484Z,29.44
2019-04-09T09:15:25.049Z,27.84
2019-04-09T09:18:01.408Z,27.37
2019-04-09T09:20:50.341Z,26.70
2019-04-09T09:23:22.318Z,25.73
2019-04-09T09:26:09.471Z,27.00
2019-04-09T09:28:57.633Z,27.21
2019-04-09T09:31:33.975Z,26.64
2019-04-09T09:34:06.551Z,24.66
2019-04-09T09:36:45.800Z,24.45
2019-04-09T09:39:18.669Z,23.89
2019-04-09T09:42:06.639Z,24.65
2019-04-09T09:44:43.873Z,25.37
2019-04-09T09:47:22.771Z,25.43
2019-04-09T09:50:07.022Z,24.61
2019-04-09T09:52:52.914Z,24.64
2019-04-09T09:55:37.067Z,25.20
2019-04-09T09:58:24.610Z,24.32
2019-04-09T10:01:06.361Z,23.43
2019-04-09T10:03:29.266Z,22.76
2019-04-09T10:06:05.815Z,22.04
2019-04-09T10:08:52.180Z,22.15
2019-04-09T10:11:37.510Z,21.35
2019-04-09T10:14:07.692Z,22.47
2019-04-09T10:16:54.070Z,22.59
2019-04-09T10:19:28.498Z,20.70
2019-04-09T10:22:20.612Z,19.90
2019-04-09T10:24:52.967Z,19.16
2019-04-09T10:27:39.271Z,20.55
2019-04-09T10:30:27.750Z,20.55
2019-04-09T10:33:02.603Z,22.36
2019-04-09T10:35:35.552Z,24.05
2019-04-09T10:38:17.009Z,22.34
2019-04-09T10:40:50.497Z,21.32
2019-04-09T10:43:26.184Z,20.50
2019-04-09T10:46:01.010Z,19.93
2019-04-09T10:48:32.484Z,19.93
2019-04-09T10:51:06.474Z,19.45
2019-04-09T10:53:37.599Z,19.04
2019-04-09T10:56:19.319Z,19.69
2019-04-09T10:58:54.070Z,19.63
2019-04-09T11:01:42.270Z,20.74
2019-04-09T11:04:13.546Z,22.29
2019-04-09T11:07:03.198Z,23.24
2019-04-09T11:09:32.650Z,23.11
2019-04-09T11:12:04.696Z,21.88
2019-04-09T11:14:43.012Z,20.61
2019-04-09T11:17:29.061Z,20.51
2019-04-09T11:20:10.864Z,19.33
2019-04-09T11:22:55.258Z,19.80
2019-04-09T11:25:28.118Z,19.47
2019-04-09T11:28:02.205Z,20.17
2019-04-09T11:30:36.180Z,21.24
2019-04-09T11:33:09.378Z,20.61
2019-04-09T11:35:56.836Z,21.02
2019-04-09T11:38:26.255Z,21.36
2019-04-09T11:41:10.680Z,23.47
2019-04-09T11:43:56.285Z,23.91
2019-04-09T11:46:38.845Z,22.33
2019-04-09T11:49:10.052Z,22.87
2019-04-09T11:51:54.221Z,22.73
2019-04-09T11:54:32.436Z,22.24
2019-04-09T11:57:22.794Z,22.17
2019-04-09T11:59:57.413Z,22.78
2019-04-09T12:02:33.229Z,22.68
2019-04-09T12:05:07.972Z,22.36
2019-04-09T12:07:42.223Z,23.07
2019-04-09T12:10:18.527Z,21.64
2019-04-09T12:12:51.796Z,20.45
2019-04-09T12:15:23.273Z,21.56
2019-04-09T12:18:07.369Z,22.75
2019-04-09T12:20:55.024Z,24.08
2019-04-09T12:23:32.242Z,25.54
2019-04-09T12:26:04.310Z,24.29
2019-04-09T12:28:42.108Z,21.88
2019-04-09T12:31:12.118Z,21.61
2019-04-09T12:33:58.477Z,20.72
2019-04-09T12:36:45.547Z,19.75
2019-04-09T12:39:36.678Z,19.14
2019-04-09T12:42:10.591Z,21.67
2019-04-09T12:44:40.186Z,22.67
2019-04-09T12:47:17.688Z,26.04
2019-04-09T12:49:51.818Z,27.87
2019-04-09T12:52:42.056Z,27.60
2019-04-09T12:55:19.497Z,26.23
2019-04-09T12:57:54.392Z,26.16
2019-04-09T13:00:28.766Z,24.09
2019-04-09T13:02:58.225Z,22.75
2019-04-09T13:05:32.229Z,22.20
2019-04-09T13:08:19.840Z,22.30
2019-04-09T13:11:07.090Z,24.18
2019-04-09T13:13:55.153Z,26.56
2019-04-09T13:16:43.351Z,26.38
2019-04-09T13:19:15.614Z,28.11
2019-04-09T13:21:49.569Z,25.65
2019-04-09T13:24:27.338Z,26.73
2019-04-09T13:27:02.613Z,28.98
2019-04-09T13:29:52.228Z,29.86
2019-04-09T13:32:37.341Z,31.47
2019-04-09T13:35:03.830Z,32.48
2019-04-09T13:37:41.261Z,32.58
2019-04-09T13:40:16.753Z,30.97
2019-04-09T13:42:51.172Z,30.03
2019-04-09T13:45:23.951Z,31.46
2019-04-09T13:47:55.401Z,32.63
2019-04-09T13:50:24.867Z,33.19
2019-04-09T13:52:56.600Z,32.77
2019-04-09T13:55:26.180Z,32.88
2019-04-09T13:57:56.250Z,33.66
2019-04-09T14:00:29.232Z,33.62
2019-04-09T14:03:26.149Z,33.88
2019-04-09T14:05:43.600Z,34.22
2019-04-09T14:08:13.184Z,34.34
2019-04-09T14:10:47.908Z,32.74
2019-04-09T14:13:14.108Z,31.39
2019-04-09T14:15:44.692Z,32.48
2019-04-09T14:18:14.524Z,32.53
2019-04-09T14:20:45.330Z,32.54
2019-04-09T14:23:15.424Z,33.14
2019-04-09T14:25:45.455Z,33.22
2019-04-09T14:28:15.478Z,32.99
2019-04-09T14:30:45.416Z,32.92
2019-04-09T14:33:14.917Z,32.74
2019-04-09T14:35:44.503Z,31.95
2019-04-09T14:38:14.132Z,32.21
2019-04-09T14:40:43.976Z,31.94
2019-04-09T14:43:15.007Z,32.29
2019-04-09T14:45:44.930Z,32.58
2019-04-09T14:48:15.026Z,32.57
2019-04-09T14:50:44.736Z,32.71
2019-04-09T14:53:15.034Z,32.84
2019-04-09T14:55:44.962Z,32.32
2019-04-09T14:58:15.159Z,32.21
2019-04-09T15:00:45.619Z,31.71
2019-04-09T15:03:24.245Z,31.59
2019-04-09T15:05:47.591Z,31.20
2019-04-09T15:08:17.535Z,31.91
2019-04-09T15:10:47.215Z,31.12
2019-04-09T15:13:19.871Z,32.18
2019-04-09T15:15:49.488Z,32.04
2019-04-09T15:18:19.662Z,32.16
2019-04-09T15:21:08.426Z,31.35
2019-04-09T15:23:38.773Z,31.96
2019-04-09T15:26:09.653Z,32.18
2019-04-09T15:28:39.920Z,32.63
2019-04-09T15:31:10.627Z,33.19
2019-04-09T15:33:41.068Z,33.36
2019-04-09T15:36:11.552Z,33.55
2019-04-09T15:38:41.323Z,32.69
2019-04-09T15:41:11.247Z,32.89
2019-04-09T15:43:44.948Z,33.78
2019-04-09T15:46:15.087Z,33.53
2019-04-09T15:48:45.391Z,33.73
2019-04-09T15:51:15.886Z,34.95
2019-04-09T15:53:47.015Z,34.19
2019-04-09T15:56:18.860Z,34.37
2019-04-09T15:58:48.917Z,34.97
2019-04-09T16:01:19.141Z,34.68
2019-04-09T16:03:55.421Z,34.88
2019-04-09T16:06:21.650Z,34.89
2019-04-09T16:08:51.658Z,35.71
2019-04-09T16:11:22.418Z,36.02
2019-04-09T16:13:53.703Z,36.44
2019-04-09T16:16:23.547Z,36.42
2019-04-09T16:18:53.303Z,36.63
2019-04-09T16:21:23.414Z,36.53
2019-04-09T16:23:52.923Z,36.79
2019-04-09T16:26:22.561Z,37.29
2019-04-09T16:28:52.142Z,37.13
2019-04-09T16:31:22.302Z,36.89
2019-04-09T16:33:59.111Z,36.67
2019-04-09T16:36:29.976Z,36.78
2019-04-09T16:39:02.014Z,37.11
2019-04-09T16:41:32.048Z,38.21
2019-04-09T16:44:01.936Z,38.34
2019-04-09T16:46:32.695Z,38.73
2019-04-09T16:49:02.722Z,38.27
2019-04-09T16:51:33.361Z,38.10
2019-04-09T16:54:04.079Z,37.85
2019-04-09T16:56:36.581Z,37.99
2019-04-09T16:59:06.256Z,38.43
2019-04-09T17:01:36.007Z,37.73
2019-04-09T17:04:18.471Z,38.29
2019-04-09T17:06:37.793Z,38.04
2019-04-09T17:09:24.541Z,38.00
2019-04-09T17:11:42.227Z,38.80
2019-04-09T17:14:11.889Z,39.08
2019-04-09T17:16:46.822Z,39.27
2019-04-09T17:19:17.224Z,39.32
2019-04-09T17:21:47.803Z,40.12
2019-04-09T17:24:18.648Z,40.32
2019-04-09T17:26:50.645Z,40.23
2019-04-09T17:29:21.181Z,41.06
2019-04-09T17:31:51.075Z,40.48
2019-04-09T17:34:27.621Z,40.47
2019-04-09T17:36:52.462Z,40.71
2019-04-09T17:39:22.174Z,40.27
2019-04-09T17:42:14.475Z,41.12
2019-04-09T17:44:44.309Z,41.18
2019-04-09T17:47:14.086Z,41.56
2019-04-09T17:49:47.059Z,42.33
2019-04-09T17:52:17.074Z,43.30
2019-04-09T17:54:46.780Z,43.06
2019-04-09T17:57:18.232Z,43.46
2019-04-09T17:59:48.136Z,43.32
2019-04-09T18:02:18.266Z,42.81
2019-04-09T18:04:52.710Z,42.28
2019-04-09T18:07:20.221Z,41.80
2019-04-09T18:09:50.069Z,40.91
2019-04-09T18:12:20.938Z,41.00
2019-04-09T18:14:53.553Z,40.34
2019-04-09T18:17:23.254Z,40.36
2019-04-09T18:19:53.041Z,40.06
2019-04-09T18:22:24.829Z,39.78
2019-04-09T18:24:55.441Z,39.88
2019-04-09T18:27:27.666Z,39.68
2019-04-09T18:30:02.364Z,39.56
2019-04-09T18:32:32.107Z,39.30
2019-04-09T18:35:03.877Z,38.74
2019-04-09T18:37:34.346Z,39.07
2019-04-09T18:40:08.154Z,38.83
2019-04-09T18:42:37.708Z,39.19
2019-04-09T18:45:08.028Z,38.90
2019-04-09T18:47:38.207Z,39.23
2019-04-09T18:50:10.663Z,39.65
2019-04-09T18:52:40.679Z,39.63
2019-04-09T18:55:11.286Z,39.80
2019-04-09T18:57:41.909Z,39.68
2019-04-09T19:00:13.883Z,39.38
2019-04-09T19:02:45.193Z,39.67
2019-04-09T19:05:17.124Z,40.03
2019-04-09T19:07:48.042Z,39.91
2019-04-09T19:10:18.823Z,40.22
2019-04-09T19:12:48.952Z,39.81
2019-04-09T19:15:18.971Z,40.67
2019-04-09T19:17:49.274Z,40.73
2019-04-09T19:20:19.562Z,40.97
2019-04-09T19:22:51.162Z,40.90
2019-04-09T19:25:20.683Z,41.14
2019-04-09T19:27:50.197Z,41.27
2019-04-09T19:30:20.809Z,41.82
2019-04-09T19:32:51.557Z,41.77
2019-04-09T19:35:27.880Z,42.05
2019-04-09T19:37:53.055Z,42.00
2019-04-09T19:40:24.293Z,41.98
2019-04-09T19:42:54.050Z,42.45
2019-04-09T19:45:28.364Z,42.68
2019-04-09T19:47:58.041Z,42.95
2019-04-09T19:50:27.855Z,42.80
2019-04-09T19:52:57.862Z,43.22
2019-04-09T19:55:28.527Z,43.33
2019-04-09T19:57:58.360Z,43.56
2019-04-09T20:00:31.887Z,43.45
2019-04-09T20:03:05.270Z,43.41
2019-04-09T20:05:38.140Z,43.93
2019-04-09T20:08:09.138Z,43.75
2019-04-09T20:10:40.688Z,43.96
2019-04-09T20:13:12.517Z,44.80
2019-04-09T20:15:42.345Z,44.61
2019-04-09T20:18:13.343Z,44.45
2019-04-09T20:20:43.258Z,44.67
2019-04-09T20:23:14.138Z,44.70
2019-04-09T20:25:44.015Z,45.01
2019-04-09T20:28:14.081Z,45.04
2019-04-09T20:30:44.061Z,45.51
2019-04-09T20:33:14.932Z,45.32
2019-04-09T20:35:49.822Z,46.05
2019-04-09T20:38:18.597Z,46.78
2019-04-09T20:40:48.266Z,46.11
2019-04-09T20:43:18.405Z,46.12
2019-04-09T20:45:48.885Z,46.26
2019-04-09T20:48:19.412Z,46.06
2019-04-09T20:50:50.189Z,46.33
2019-04-09T20:53:20.483Z,46.81
2019-04-09T20:55:50.108Z,46.84
2019-04-09T20:58:20.429Z,47.74
2019-04-09T21:00:50.346Z,47.38
2019-04-09T21:03:22.864Z,48.19
2019-04-09T21:06:00.239Z,48.06
2019-04-09T21:08:25.795Z,48.38
2019-04-09T21:10:55.595Z,48.55
2019-04-09T21:13:25.378Z,48.30
2019-04-09T21:15:55.781Z,48.52
2019-04-09T21:18:25.543Z,48.91
2019-04-09T21:20:55.413Z,48.86
2019-04-09T21:23:26.221Z,49.24
2019-04-09T21:25:55.979Z,49.76
2019-04-09T21:28:25.725Z,49.35
2019-04-09T21:30:55.384Z,49.51
2019-04-09T21:33:25.019Z,49.15
2019-04-09T21:36:05.221Z,49.19
2019-04-09T21:38:27.637Z,49.69
2019-04-09T21:40:58.167Z,49.78
2019-04-09T21:43:28.032Z,49.79
2019-04-09T21:45:59.081Z,49.69
2019-04-09T21:48:29.272Z,49.65
2019-04-09T21:50:59.415Z,49.35
2019-04-09T21:53:29.962Z,50.09
2019-04-09T21:56:00.529Z,50.27
2019-04-09T21:58:30.863Z,50.31
2019-04-09T22:01:07.030Z,50.29
2019-04-09T22:03:36.823Z,50.15
2019-04-09T22:06:18.655Z,50.33
2019-04-09T22:08:38.300Z,50.16
2019-04-09T22:11:08.106Z,50.78
2019-04-09T22:13:37.716Z,50.29
2019-04-09T22:16:09.521Z,50.61
2019-04-09T22:18:39.610Z,50.82
2019-04-09T22:21:09.979Z,50.77
2019-04-09T22:23:46.353Z,50.44
2019-04-09T22:26:11.531Z,50.65
2019-04-09T22:28:44.830Z,51.24
2019-04-09T22:31:16.100Z,51.19
2019-04-09T22:33:46.746Z,51.39
2019-04-09T22:36:29.489Z,51.29
2019-04-09T22:38:47.672Z,50.80
2019-04-09T22:41:17.455Z,50.78
2019-04-09T22:43:47.388Z,50.96
2019-04-09T22:46:20.217Z,50.97
2019-04-09T22:48:52.759Z,51.11
2019-04-09T22:51:23.105Z,50.98
2019-04-09T22:53:52.977Z,50.98
2019-04-09T22:56:22.867Z,50.76
2019-04-09T22:58:53.279Z,50.54
2019-04-09T23:01:26.490Z,50.94
2019-04-09T23:03:55.938Z,51.18
2019-04-09T23:06:27.997Z,51.49
2019-04-09T23:09:05.460Z,52.09
2019-04-09T23:11:36.961Z,51.72
2019-04-09T23:14:06.659Z,52.10
2019-04-09T23:16:37.401Z,52.43
2019-04-09T23:19:07.800Z,52.68
2019-04-09T23:21:37.701Z,51.95
2019-04-09T23:24:07.520Z,52.75
2019-04-09T23:26:37.465Z,52.67
2019-04-09T23:29:07.209Z,52.60
2019-04-09T23:31:36.949Z,53.11
2019-04-09T23:34:06.551Z,53.27
2019-04-09T23:36:36.266Z,52.89
2019-04-09T23:39:08.334Z,53.43
2019-04-09T23:41:38.245Z,53.72
2019-04-09T23:44:08.175Z,53.24
2019-04-09T23:46:37.872Z,53.45
2019-04-09T23:49:07.608Z,53.53
2019-04-09T23:51:37.632Z,54.04
2019-04-09T23:54:07.690Z,54.68
2019-04-09T23:56:37.921Z,55.04
2019-04-09T23:59:10.351Z,54.82
